createdAt,value
2023-02-05T00:00:11.603Z,0.00
2023-02-05T00:01:11.588Z,0.00
2023-02-05T00:02:11.595Z,0.00
2023-02-05T00:03:11.573Z,0.00
2023-02-05T00:04:11.565Z,0.00
2023-02-05T00:05:11.544Z,0.00
2023-02-05T00:06:11.535Z,0.00
2023-02-05T00:07:11.526Z,0.00
2023-02-05T00:08:11.516Z,0.00
2023-02-05T00:09:11.481Z,0.00
2023-02-05T00:10:11.483Z,0.00
2023-02-05T00:11:11.463Z,0.00
2023-02-05T00:12:11.477Z,0.00
2023-02-05T00:13:11.452Z,0.00
2023-02-05T00:14:11.430Z,0.00
2023-02-05T00:15:11.411Z,0.00
2023-02-05T00:16:11.444Z,0.00
2023-02-05T00:17:11.379Z,0.00
2023-02-05T00:18:11.389Z,0.00
2023-02-05T00:19:11.358Z,0.00
2023-02-05T00:20:11.346Z,0.00
2023-02-05T00:21:11.343Z,0.00
2023-02-05T00:22:11.333Z,0.00
2023-02-05T00:23:11.332Z,0.00
2023-02-05T00:24:11.300Z,0.00
2023-02-05T00:25:11.300Z,0.00
2023-02-05T00:26:11.278Z,0.00
2023-02-05T00:27:11.260Z,0.00
2023-02-05T00:28:11.334Z,0.00
2023-02-05T00:29:11.241Z,0.00
2023-02-05T00:30:11.225Z,0.00
2023-02-05T00:31:11.247Z,0.00
2023-02-05T00:32:11.196Z,0.00
2023-02-05T00:33:11.202Z,0.00
2023-02-05T00:34:11.175Z,0.00
2023-02-05T00:35:11.152Z,0.00
2023-02-05T00:36:12.790Z,0.00
2023-02-05T00:37:11.135Z,0.00
2023-02-05T00:38:11.123Z,0.00
2023-02-05T00:39:11.123Z,0.00
2023-02-05T00:40:11.092Z,0.00
2023-02-05T00:41:11.089Z,0.00
2023-02-05T00:42:11.062Z,0.00
2023-02-05T00:43:11.065Z,0.00
2023-02-05T00:44:11.056Z,0.00
2023-02-05T00:45:11.036Z,0.00
2023-02-05T00:46:11.081Z,0.00
2023-02-05T00:47:11.000Z,0.00
2023-02-05T00:48:11.010Z,0.00
2023-02-05T00:49:10.974Z,0.00
2023-02-05T00:50:10.978Z,0.00
2023-02-05T00:51:10.947Z,0.00
2023-02-05T00:52:10.983Z,0.00
2023-02-05T00:53:10.947Z,0.00
2023-02-05T00:54:10.908Z,0.00
2023-02-05T00:55:10.901Z,0.00
2023-02-05T00:56:10.895Z,0.00
2023-02-05T00:57:10.881Z,0.00
2023-02-05T00:58:10.868Z,0.00
2023-02-05T00:59:10.849Z,0.00
2023-02-05T01:00:10.856Z,0.00
2023-02-05T01:01:10.923Z,0.00
2023-02-05T01:02:10.843Z,0.00
2023-02-05T01:03:10.827Z,0.00
2023-02-05T01:04:10.783Z,0.00
2023-02-05T01:05:10.781Z,0.00
2023-02-05T01:06:10.758Z,0.00
2023-02-05T01:07:10.758Z,0.00
2023-02-05T01:08:10.740Z,0.00
2023-02-05T01:09:10.731Z,0.00
2023-02-05T01:10:10.707Z,0.00
2023-02-05T01:11:10.707Z,0.00
2023-02-05T01:12:10.690Z,0.00
2023-02-05T01:13:10.688Z,0.00
2023-02-05T01:14:10.661Z,0.00
2023-02-05T01:15:10.656Z,0.00
2023-02-05T01:16:10.785Z,0.00
2023-02-05T01:17:10.627Z,0.00
2023-02-05T01:18:10.631Z,0.00
2023-02-05T01:19:10.600Z,0.00
2023-02-05T01:20:10.578Z,0.00
2023-02-05T01:21:10.578Z,0.00
2023-02-05T01:22:10.572Z,0.00
2023-02-05T01:23:10.558Z,0.00
2023-02-05T01:24:10.537Z,0.00
2023-02-05T01:25:10.544Z,0.00
2023-02-05T01:26:10.507Z,0.00
2023-02-05T01:27:10.498Z,0.00
2023-02-05T01:28:10.612Z,0.00
2023-02-05T01:29:10.474Z,0.00
2023-02-05T01:30:10.456Z,0.00
2023-02-05T01:31:10.541Z,0.00
2023-02-05T01:32:10.439Z,0.00
2023-02-05T01:33:10.447Z,0.00
2023-02-05T01:34:10.408Z,0.00
2023-02-05T01:35:10.404Z,0.00
2023-02-05T01:36:10.384Z,0.00
2023-02-05T01:37:10.376Z,0.00
2023-02-05T01:38:10.393Z,0.00
2023-02-05T01:39:10.363Z,0.00
2023-02-05T01:40:10.328Z,0.00
2023-02-05T01:41:10.322Z,0.00
2023-02-05T01:42:10.314Z,0.00
2023-02-05T01:43:10.301Z,0.00
2023-02-05T01:44:10.295Z,0.00
2023-02-05T01:45:10.272Z,0.00
2023-02-05T01:46:10.262Z,0.00
2023-02-05T01:47:10.242Z,0.00
2023-02-05T01:48:10.226Z,0.00
2023-02-05T01:49:10.230Z,0.00
2023-02-05T01:50:10.204Z,0.00
2023-02-05T01:51:10.185Z,0.00
2023-02-05T01:52:10.176Z,0.00
2023-02-05T01:53:10.175Z,0.00
2023-02-05T01:54:10.146Z,0.00
2023-02-05T01:55:10.148Z,0.00
2023-02-05T01:56:10.114Z,0.00
2023-02-05T01:57:10.103Z,0.00
2023-02-05T01:58:10.113Z,0.00
2023-02-05T01:59:10.109Z,0.00
2023-02-05T02:00:10.064Z,0.00
2023-02-05T02:01:10.061Z,0.00
2023-02-05T02:02:10.047Z,0.00
2023-02-05T02:03:10.041Z,0.00
2023-02-05T02:04:10.020Z,0.00
2023-02-05T02:05:10.074Z,0.00
2023-02-05T02:06:09.992Z,0.00
2023-02-05T02:07:10.018Z,0.00
2023-02-05T02:08:09.996Z,0.00
2023-02-05T02:09:09.958Z,0.00
2023-02-05T02:10:09.937Z,0.00
2023-02-05T02:11:09.932Z,0.00
2023-02-05T02:12:09.926Z,0.00
2023-02-05T02:13:09.933Z,0.00
2023-02-05T02:14:09.898Z,0.00
2023-02-05T02:15:09.896Z,0.00
2023-02-05T02:16:09.912Z,0.00
2023-02-05T02:17:09.868Z,0.00
2023-02-05T02:18:09.854Z,0.00
2023-02-05T02:19:09.829Z,0.00
2023-02-05T02:20:09.828Z,0.00
2023-02-05T02:21:09.820Z,0.00
2023-02-05T02:22:09.800Z,0.00
2023-02-05T02:23:09.795Z,0.00
2023-02-05T02:24:09.769Z,0.00
2023-02-05T02:25:09.757Z,0.00
2023-02-05T02:26:09.756Z,0.00
2023-02-05T02:27:09.735Z,0.00
2023-02-05T02:28:09.765Z,0.00
2023-02-05T02:29:09.704Z,0.00
2023-02-05T02:30:09.696Z,0.00
2023-02-05T02:31:09.708Z,0.00
2023-02-05T02:32:09.665Z,0.00
2023-02-05T02:33:09.676Z,0.00
2023-02-05T02:34:09.643Z,0.00
2023-02-05T02:35:09.631Z,0.00
2023-02-05T02:36:09.628Z,0.00
2023-02-05T02:37:09.606Z,0.00
2023-02-05T02:38:09.595Z,0.00
2023-02-05T02:39:09.631Z,0.00
2023-02-05T02:40:09.559Z,0.00
2023-02-05T02:41:09.569Z,0.00
2023-02-05T02:42:09.532Z,0.00
2023-02-05T02:43:09.559Z,0.00
2023-02-05T02:44:09.511Z,0.00
2023-02-05T02:45:09.504Z,0.00
2023-02-05T02:46:09.493Z,0.00
2023-02-05T02:47:09.484Z,0.00
2023-02-05T02:48:09.473Z,0.00
2023-02-05T02:49:09.486Z,0.00
2023-02-05T02:50:09.443Z,0.00
2023-02-05T02:51:09.440Z,0.00
2023-02-05T02:52:09.430Z,0.00
2023-02-05T02:53:09.403Z,0.00
2023-02-05T02:54:09.412Z,0.00
2023-02-05T02:55:09.388Z,0.00
2023-02-05T02:56:09.370Z,0.00
2023-02-05T02:57:09.363Z,0.00
2023-02-05T02:58:09.343Z,0.00
2023-02-05T02:59:09.354Z,0.00
2023-02-05T03:00:09.314Z,0.00
2023-02-05T03:01:09.426Z,0.00
2023-02-05T03:02:09.294Z,0.00
2023-02-05T03:03:09.283Z,0.00
2023-02-05T03:04:09.288Z,0.00
2023-02-05T03:05:09.270Z,0.00
2023-02-05T03:06:09.245Z,0.00
2023-02-05T03:07:09.240Z,0.00
2023-02-05T03:08:09.228Z,0.00
2023-02-05T03:09:09.247Z,0.00
2023-02-05T03:10:09.215Z,0.00
2023-02-05T03:11:09.190Z,0.00
2023-02-05T03:12:09.173Z,0.00
2023-02-05T03:13:09.169Z,0.00
2023-02-05T03:14:09.154Z,0.00
2023-02-05T03:15:09.163Z,0.00
2023-02-05T03:16:09.221Z,0.00
2023-02-05T03:17:09.109Z,0.00
2023-02-05T03:18:09.094Z,0.00
2023-02-05T03:19:09.110Z,0.00
2023-02-05T03:20:09.078Z,0.00
2023-02-05T03:21:09.079Z,0.00
2023-02-05T03:22:09.048Z,0.00
2023-02-05T03:23:09.044Z,0.00
2023-02-05T03:24:09.030Z,0.00
2023-02-05T03:25:09.015Z,0.00
2023-02-05T03:26:09.008Z,0.00
2023-02-05T03:27:08.987Z,0.00
2023-02-05T03:28:08.993Z,0.00
2023-02-05T03:29:08.979Z,0.00
2023-02-05T03:30:08.953Z,0.00
2023-02-05T03:31:08.989Z,0.00
2023-02-05T03:32:08.915Z,0.00
2023-02-05T03:33:08.905Z,0.00
2023-02-05T03:34:08.918Z,0.00
2023-02-05T03:35:08.883Z,0.00
2023-02-05T03:36:08.863Z,0.00
2023-02-05T03:37:08.862Z,0.00
2023-02-05T03:38:08.854Z,0.00
2023-02-05T03:39:08.872Z,0.00
2023-02-05T03:40:08.813Z,0.00
2023-02-05T03:41:08.812Z,0.00
2023-02-05T03:42:08.913Z,0.00
2023-02-05T03:43:08.804Z,0.00
2023-02-05T03:44:08.772Z,0.00
2023-02-05T03:45:08.762Z,0.00
2023-02-05T03:46:08.768Z,0.00
2023-02-05T03:47:08.730Z,0.00
2023-02-05T03:48:08.722Z,0.00
2023-02-05T03:49:08.738Z,0.00
2023-02-05T03:50:08.690Z,0.00
2023-02-05T03:51:08.697Z,0.00
2023-02-05T03:52:08.672Z,0.00
2023-02-05T03:53:08.658Z,0.00
2023-02-05T03:54:08.655Z,0.00
2023-02-05T03:55:08.635Z,0.00
2023-02-05T03:56:08.628Z,0.00
2023-02-05T03:57:08.622Z,0.00
2023-02-05T03:58:08.596Z,0.00
2023-02-05T03:59:08.592Z,0.00
2023-02-05T04:00:08.580Z,0.00
2023-02-05T04:01:08.572Z,0.00
2023-02-05T04:02:08.571Z,0.00
2023-02-05T04:03:08.544Z,0.00
2023-02-05T04:04:08.530Z,0.00
2023-02-05T04:05:08.525Z,0.00
2023-02-05T04:06:08.480Z,0.00
2023-02-05T04:07:08.496Z,0.00
2023-02-05T04:08:08.457Z,0.00
2023-02-05T04:09:08.457Z,0.00
2023-02-05T04:10:08.466Z,0.00
2023-02-05T04:11:08.427Z,0.00
2023-02-05T04:12:08.416Z,0.00
2023-02-05T04:13:08.404Z,0.00
2023-02-05T04:14:08.539Z,0.00
2023-02-05T04:15:08.398Z,0.00
2023-02-05T04:16:08.417Z,0.00
2023-02-05T04:17:08.355Z,0.00
2023-02-05T04:18:08.346Z,0.00
2023-02-05T04:19:08.322Z,0.00
2023-02-05T04:20:08.322Z,0.00
2023-02-05T04:21:08.327Z,0.00
2023-02-05T04:22:08.281Z,0.00
2023-02-05T04:23:08.284Z,0.00
2023-02-05T04:24:08.365Z,0.00
2023-02-05T04:25:08.302Z,0.00
2023-02-05T04:26:08.240Z,0.00
2023-02-05T04:27:08.222Z,0.00
2023-02-05T04:28:08.270Z,0.00
2023-02-05T04:29:08.204Z,0.00
2023-02-05T04:30:08.192Z,0.00
2023-02-05T04:31:08.179Z,0.00
2023-02-05T04:32:08.161Z,0.00
2023-02-05T04:33:08.165Z,0.00
2023-02-05T04:34:08.132Z,0.00
2023-02-05T04:35:08.146Z,0.00
2023-02-05T04:36:08.121Z,0.00
2023-02-05T04:37:08.113Z,0.00
2023-02-05T04:38:08.093Z,0.00
2023-02-05T04:39:08.119Z,0.00
2023-02-05T04:40:08.161Z,0.00
2023-02-05T04:41:08.063Z,0.00
2023-02-05T04:42:08.039Z,0.00
2023-02-05T04:43:08.031Z,0.00
2023-02-05T04:44:08.023Z,0.00
2023-02-05T04:45:08.022Z,0.00
2023-02-05T04:46:08.093Z,0.00
2023-02-05T04:47:07.979Z,0.00
2023-02-05T04:48:07.968Z,0.00
2023-02-05T04:49:07.973Z,0.00
2023-02-05T04:50:07.954Z,0.00
2023-02-05T04:51:07.921Z,0.00
2023-02-05T04:52:07.918Z,0.00
2023-02-05T04:53:07.990Z,0.00
2023-02-05T04:54:07.891Z,0.00
2023-02-05T04:55:07.887Z,0.00
2023-02-05T04:56:07.882Z,0.00
2023-02-05T04:57:07.859Z,0.00
2023-02-05T04:58:07.847Z,0.00
2023-02-05T04:59:07.828Z,0.00
2023-02-05T05:00:07.860Z,0.00
2023-02-05T05:01:07.891Z,0.00
2023-02-05T05:02:07.818Z,0.00
2023-02-05T05:03:07.775Z,0.00
2023-02-05T05:04:07.769Z,0.00
2023-02-05T05:05:07.766Z,0.00
2023-02-05T05:06:07.744Z,0.00
2023-02-05T05:07:07.725Z,0.00
2023-02-05T05:08:07.720Z,0.00
2023-02-05T05:09:07.706Z,0.00
2023-02-05T05:10:07.715Z,0.00
2023-02-05T05:11:07.675Z,0.00
2023-02-05T05:12:07.669Z,0.00
2023-02-05T05:13:07.653Z,0.00
2023-02-05T05:14:07.642Z,0.00
2023-02-05T05:15:07.646Z,0.00
2023-02-05T05:16:07.729Z,0.00
2023-02-05T05:17:07.601Z,0.00
2023-02-05T05:18:07.604Z,0.00
2023-02-05T05:19:07.572Z,0.00
2023-02-05T05:20:07.594Z,0.00
2023-02-05T05:21:07.552Z,0.00
2023-02-05T05:22:07.553Z,0.00
2023-02-05T05:23:07.532Z,0.00
2023-02-05T05:24:07.517Z,0.00
2023-02-05T05:25:07.533Z,0.00
2023-02-05T05:26:07.503Z,0.00
2023-02-05T05:27:07.481Z,0.00
2023-02-05T05:28:07.501Z,0.00
2023-02-05T05:29:07.457Z,0.00
2023-02-05T05:30:07.452Z,0.00
2023-02-05T05:31:07.483Z,0.00
2023-02-05T05:32:07.461Z,0.00
2023-02-05T05:33:07.410Z,0.00
2023-02-05T05:34:07.389Z,0.00
2023-02-05T05:35:07.387Z,0.00
2023-02-05T05:36:07.367Z,0.00
2023-02-05T05:37:07.352Z,0.00
2023-02-05T05:38:07.358Z,0.00
2023-02-05T05:39:07.327Z,0.00
2023-02-05T05:40:07.332Z,0.00
2023-02-05T05:41:07.307Z,0.00
2023-02-05T05:42:07.295Z,0.00
2023-02-05T05:43:07.275Z,0.00
2023-02-05T05:44:07.265Z,0.00
2023-02-05T05:45:07.264Z,0.00
2023-02-05T05:46:07.303Z,0.00
2023-02-05T05:47:07.266Z,0.00
2023-02-05T05:48:07.224Z,0.00
2023-02-05T05:49:07.216Z,0.00
2023-02-05T05:50:07.204Z,0.00
2023-02-05T05:51:07.220Z,0.00
2023-02-05T05:52:07.173Z,0.00
2023-02-05T05:53:07.156Z,0.00
2023-02-05T05:54:07.144Z,0.00
2023-02-05T05:55:07.153Z,0.00
2023-02-05T05:56:07.113Z,0.00
2023-02-05T05:57:07.136Z,0.00
2023-02-05T05:58:07.170Z,0.00
2023-02-05T05:59:07.071Z,0.00
2023-02-05T06:00:07.069Z,0.00
2023-02-05T06:01:07.047Z,0.00
2023-02-05T06:02:07.047Z,0.00
2023-02-05T06:03:07.028Z,0.00
2023-02-05T06:04:07.028Z,0.00
2023-02-05T06:05:07.015Z,0.00
2023-02-05T06:06:07.004Z,0.00
2023-02-05T06:07:07.392Z,4.00
2023-02-05T06:08:06.993Z,0.00
2023-02-05T06:09:06.946Z,0.00
2023-02-05T06:10:06.958Z,4.00
2023-02-05T06:11:06.928Z,0.00
2023-02-05T06:12:06.925Z,4.00
2023-02-05T06:13:06.891Z,0.00
2023-02-05T06:14:06.903Z,4.00
2023-02-05T06:15:07.311Z,4.00
2023-02-05T06:16:06.934Z,4.00
2023-02-05T06:17:06.871Z,4.00
2023-02-05T06:18:06.840Z,8.00
2023-02-05T06:19:06.822Z,4.00
2023-02-05T06:20:06.818Z,4.00
2023-02-05T06:21:06.799Z,8.00
2023-02-05T06:22:06.797Z,8.00
2023-02-05T06:23:06.779Z,12.00
2023-02-05T06:24:06.757Z,12.00
2023-02-05T06:25:06.757Z,16.00
2023-02-05T06:26:06.771Z,16.00
2023-02-05T06:27:06.715Z,20.00
2023-02-05T06:28:06.743Z,24.00
2023-02-05T06:29:06.699Z,24.00
2023-02-05T06:30:06.721Z,28.00
2023-02-05T06:31:06.729Z,28.00
2023-02-05T06:32:06.663Z,36.00
2023-02-05T06:33:06.653Z,40.00
2023-02-05T06:34:06.637Z,44.00
2023-02-05T06:35:06.645Z,52.00
2023-02-05T06:36:06.627Z,60.00
2023-02-05T06:37:06.595Z,68.00
2023-02-05T06:38:06.590Z,76.00
2023-02-05T06:39:06.607Z,80.00
2023-02-05T06:40:06.583Z,88.00
2023-02-05T06:41:06.546Z,92.00
2023-02-05T06:42:06.543Z,96.00
2023-02-05T06:43:06.530Z,100.00
2023-02-05T06:44:06.518Z,108.00
2023-02-05T06:45:06.513Z,120.00
2023-02-05T06:46:06.521Z,136.00
2023-02-05T06:47:06.474Z,144.00
2023-02-05T06:48:06.477Z,156.00
2023-02-05T06:49:06.442Z,156.00
2023-02-05T06:50:06.446Z,164.00
2023-02-05T06:51:06.434Z,176.00
2023-02-05T06:52:06.415Z,192.00
2023-02-05T06:53:06.409Z,204.00
2023-02-05T06:54:06.392Z,212.00
2023-02-05T06:55:06.395Z,220.00
2023-02-05T06:56:06.372Z,228.00
2023-02-05T06:57:06.359Z,248.00
2023-02-05T06:58:06.344Z,272.00
2023-02-05T06:59:06.322Z,300.00
2023-02-05T07:00:06.331Z,328.00
2023-02-05T07:01:06.308Z,352.00
2023-02-05T07:02:06.299Z,364.00
2023-02-05T07:03:06.268Z,372.00
2023-02-05T07:04:06.259Z,372.00
2023-02-05T07:05:06.260Z,364.00
2023-02-05T07:06:06.259Z,368.00
2023-02-05T07:07:06.229Z,392.00
2023-02-05T07:08:06.219Z,424.00
2023-02-05T07:09:06.201Z,452.00
2023-02-05T07:10:06.222Z,488.00
2023-02-05T07:11:06.186Z,528.00
2023-02-05T07:12:06.173Z,564.00
2023-02-05T07:13:06.183Z,580.00
2023-02-05T07:14:06.152Z,576.00
2023-02-05T07:15:06.140Z,572.00
2023-02-05T07:16:06.169Z,568.00
2023-02-05T07:17:06.116Z,564.00
2023-02-05T07:18:06.097Z,556.00
2023-02-05T07:19:06.093Z,556.00
2023-02-05T07:20:06.079Z,564.00
2023-02-05T07:21:06.084Z,572.00
2023-02-05T07:22:06.046Z,576.00
2023-02-05T07:23:06.031Z,580.00
2023-02-05T07:24:06.032Z,576.00
2023-02-05T07:25:06.044Z,576.00
2023-02-05T07:26:05.998Z,588.00
2023-02-05T07:27:05.977Z,604.00
2023-02-05T07:28:05.994Z,628.00
2023-02-05T07:29:05.956Z,652.00
2023-02-05T07:30:05.957Z,676.00
2023-02-05T07:31:06.008Z,692.00
2023-02-05T07:32:06.090Z,716.00
2023-02-05T07:33:05.906Z,740.00
2023-02-05T07:34:05.903Z,764.00
2023-02-05T07:35:05.900Z,776.00
2023-02-05T07:36:05.885Z,788.00
2023-02-05T07:37:05.872Z,800.00
2023-02-05T07:38:05.856Z,820.00
2023-02-05T07:39:05.823Z,836.00
2023-02-05T07:40:05.844Z,844.00
2023-02-05T07:41:05.814Z,856.00
2023-02-05T07:42:05.791Z,868.00
2023-02-05T07:43:05.779Z,876.00
2023-02-05T07:44:05.780Z,888.00
2023-02-05T07:45:05.797Z,904.00
2023-02-05T07:46:05.735Z,932.00
2023-02-05T07:47:05.739Z,956.00
2023-02-05T07:48:05.716Z,984.00
2023-02-05T07:49:05.725Z,1020.00
2023-02-05T07:50:05.710Z,1064.00
2023-02-05T07:51:05.694Z,1108.00
2023-02-05T07:52:05.663Z,1140.00
2023-02-05T07:53:05.657Z,1164.00
2023-02-05T07:54:05.634Z,1180.00
2023-02-05T07:55:05.675Z,1176.00
2023-02-05T07:56:05.611Z,1164.00
2023-02-05T07:57:07.026Z,1152.00
2023-02-05T07:58:05.591Z,1132.00
2023-02-05T07:59:05.580Z,1144.00
2023-02-05T08:00:05.569Z,1124.00
2023-02-05T08:01:05.614Z,1140.00
2023-02-05T08:02:05.543Z,1132.00
2023-02-05T08:03:05.530Z,1144.00
2023-02-05T08:04:05.593Z,1136.00
2023-02-05T08:05:05.528Z,1136.00
2023-02-05T08:06:05.488Z,1136.00
2023-02-05T08:07:05.488Z,1108.00
2023-02-05T08:08:05.468Z,1072.00
2023-02-05T08:09:05.457Z,1076.00
2023-02-05T08:10:05.460Z,1104.00
2023-02-05T08:11:05.433Z,1268.00
2023-02-05T08:12:05.409Z,1228.00
2023-02-05T08:13:05.408Z,1176.00
2023-02-05T08:14:05.396Z,1084.00
2023-02-05T08:15:05.418Z,1016.00
2023-02-05T08:16:05.381Z,992.00
2023-02-05T08:17:05.367Z,984.00
2023-02-05T08:18:05.340Z,988.00
2023-02-05T08:19:05.332Z,992.00
2023-02-05T08:20:05.361Z,1004.00
2023-02-05T08:21:05.317Z,1008.00
2023-02-05T08:22:05.286Z,1016.00
2023-02-05T08:23:05.292Z,1032.00
2023-02-05T08:24:05.254Z,1044.00
2023-02-05T08:25:05.370Z,1052.00
2023-02-05T08:26:05.242Z,1064.00
2023-02-05T08:27:05.225Z,1076.00
2023-02-05T08:28:05.254Z,1084.00
2023-02-05T08:29:05.211Z,1104.00
2023-02-05T08:30:05.190Z,1124.00
2023-02-05T08:31:05.206Z,1164.00
2023-02-05T08:32:05.166Z,1204.00
2023-02-05T08:33:05.156Z,1240.00
2023-02-05T08:34:05.131Z,1276.00
2023-02-05T08:35:05.146Z,1324.00
2023-02-05T08:36:05.117Z,1380.00
2023-02-05T08:37:05.103Z,1424.00
2023-02-05T08:38:05.110Z,1464.00
2023-02-05T08:39:05.083Z,1508.00
2023-02-05T08:40:05.068Z,1544.00
2023-02-05T08:41:05.048Z,1592.00
2023-02-05T08:42:05.039Z,1632.00
2023-02-05T08:43:05.022Z,1664.00
2023-02-05T08:44:05.008Z,1692.00
2023-02-05T08:45:05.006Z,1704.00
2023-02-05T08:46:04.995Z,1708.00
2023-02-05T08:47:04.969Z,1696.00
2023-02-05T08:48:04.964Z,1680.00
2023-02-05T08:49:04.954Z,1624.00
2023-02-05T08:50:04.952Z,1588.00
2023-02-05T08:51:04.931Z,1568.00
2023-02-05T08:52:04.908Z,1548.00
2023-02-05T08:53:04.899Z,1536.00
2023-02-05T08:54:04.876Z,1540.00
2023-02-05T08:55:04.888Z,1536.00
2023-02-05T08:56:04.863Z,1532.00
2023-02-05T08:57:04.852Z,1540.00
2023-02-05T08:58:04.824Z,1556.00
2023-02-05T08:59:04.825Z,1568.00
2023-02-05T09:00:04.812Z,1584.00
2023-02-05T09:01:04.830Z,1600.00
2023-02-05T09:02:04.779Z,1620.00
2023-02-05T09:03:04.763Z,1656.00
2023-02-05T09:04:04.770Z,1700.00
2023-02-05T09:05:09.248Z,1744.00
2023-02-05T09:06:05.724Z,1776.00
2023-02-05T09:07:04.720Z,1788.00
2023-02-05T09:08:04.704Z,1816.00
2023-02-05T09:09:04.689Z,1852.00
2023-02-05T09:10:04.684Z,1864.00
2023-02-05T09:11:04.690Z,1876.00
2023-02-05T09:12:04.651Z,1892.00
2023-02-05T09:13:04.642Z,1904.00
2023-02-05T09:14:04.625Z,1916.00
2023-02-05T09:15:04.629Z,1920.00
2023-02-05T09:16:04.614Z,1928.00
2023-02-05T09:17:04.603Z,1948.00
2023-02-05T09:18:04.570Z,1956.00
2023-02-05T09:19:04.574Z,1964.00
2023-02-05T09:20:04.551Z,1960.00
2023-02-05T09:21:04.550Z,1960.00
2023-02-05T09:22:04.533Z,1940.00
2023-02-05T09:23:04.510Z,1924.00
2023-02-05T09:24:04.492Z,1876.00
2023-02-05T09:25:04.509Z,1844.00
2023-02-05T09:26:04.492Z,1816.00
2023-02-05T09:27:06.357Z,1776.00
2023-02-05T09:28:04.497Z,1724.00
2023-02-05T09:29:04.446Z,1680.00
2023-02-05T09:30:04.423Z,1648.00
2023-02-05T09:31:04.537Z,1624.00
2023-02-05T09:32:04.408Z,1620.00
2023-02-05T09:33:04.393Z,1632.00
2023-02-05T09:34:04.382Z,1648.00
2023-02-05T09:35:04.363Z,1668.00
2023-02-05T09:36:04.387Z,1692.00
2023-02-05T09:37:04.350Z,1716.00
2023-02-05T09:38:04.332Z,1732.00
2023-02-05T09:39:16.843Z,1764.00
2023-02-05T09:40:20.409Z,1800.00
2023-02-05T09:41:05.310Z,1836.00
2023-02-05T09:42:04.296Z,1860.00
2023-02-05T09:43:04.274Z,1892.00
2023-02-05T09:44:04.252Z,1900.00
2023-02-05T09:45:04.249Z,1880.00
2023-02-05T09:46:04.287Z,1848.00
2023-02-05T09:47:04.208Z,1800.00
2023-02-05T09:48:04.203Z,1772.00
2023-02-05T09:49:04.209Z,1764.00
2023-02-05T09:50:04.209Z,1760.00
2023-02-05T09:51:04.183Z,1760.00
2023-02-05T09:52:04.140Z,1760.00
2023-02-05T09:53:04.139Z,1744.00
2023-02-05T09:54:04.118Z,1720.00
2023-02-05T09:55:04.121Z,1692.00
2023-02-05T09:56:04.103Z,1668.00
2023-02-05T09:57:04.091Z,1636.00
2023-02-05T09:58:04.063Z,1612.00
2023-02-05T09:59:04.070Z,1592.00
2023-02-05T10:00:04.045Z,1568.00
2023-02-05T10:01:04.085Z,1560.00
2023-02-05T10:02:05.877Z,1552.00
2023-02-05T10:03:04.002Z,1540.00
2023-02-05T10:04:04.048Z,1536.00
2023-02-05T10:05:03.982Z,1528.00
2023-02-05T10:06:03.980Z,1512.00
2023-02-05T10:07:03.981Z,1496.00
2023-02-05T10:08:03.953Z,1472.00
2023-02-05T10:09:03.939Z,1456.00
2023-02-05T10:10:03.916Z,1444.00
2023-02-05T10:11:03.919Z,1436.00
2023-02-05T10:12:03.891Z,1428.00
2023-02-05T10:13:03.877Z,1428.00
2023-02-05T10:14:03.848Z,1428.00
2023-02-05T10:15:04.029Z,1436.00
2023-02-05T10:16:03.879Z,1436.00
2023-02-05T10:17:03.814Z,1444.00
2023-02-05T10:18:03.807Z,1452.00
2023-02-05T10:19:03.797Z,1460.00
2023-02-05T10:20:04.138Z,1464.00
2023-02-05T10:21:03.790Z,1464.00
2023-02-05T10:22:03.794Z,1460.00
2023-02-05T10:23:03.747Z,1456.00
2023-02-05T10:24:03.726Z,1452.00
2023-02-05T10:25:03.721Z,1460.00
2023-02-05T10:26:03.707Z,1460.00
2023-02-05T10:27:03.700Z,1456.00
2023-02-05T10:28:03.716Z,1452.00
2023-02-05T10:29:03.678Z,1448.00
2023-02-05T10:30:03.663Z,1448.00
2023-02-05T10:31:03.760Z,1440.00
2023-02-05T10:32:03.640Z,1432.00
2023-02-05T10:33:03.627Z,1416.00
2023-02-05T10:34:03.597Z,1400.00
2023-02-05T10:35:03.607Z,1380.00
2023-02-05T10:36:03.580Z,1376.00
2023-02-05T10:37:03.575Z,1352.00
2023-02-05T10:38:04.707Z,1340.00
2023-02-05T10:39:03.545Z,1328.00
2023-02-05T10:40:03.528Z,1316.00
2023-02-05T10:41:03.522Z,1312.00
2023-02-05T10:42:03.523Z,1312.00
2023-02-05T10:43:03.492Z,1316.00
2023-02-05T10:44:03.475Z,1320.00
2023-02-05T10:45:03.462Z,1332.00
2023-02-05T10:46:03.479Z,1344.00
2023-02-05T10:47:03.443Z,1360.00
2023-02-05T10:48:03.410Z,1376.00
2023-02-05T10:49:03.410Z,1392.00
2023-02-05T10:50:03.389Z,1404.00
2023-02-05T10:51:03.441Z,1416.00
2023-02-05T10:52:03.388Z,1436.00
2023-02-05T10:53:03.349Z,1448.00
2023-02-05T10:54:03.335Z,1468.00
2023-02-05T10:55:03.341Z,1480.00
2023-02-05T10:56:03.324Z,1496.00
2023-02-05T10:57:03.316Z,1508.00
2023-02-05T10:58:03.341Z,1516.00
2023-02-05T10:59:03.280Z,1520.00
2023-02-05T11:00:03.279Z,1520.00
2023-02-05T11:01:03.255Z,1520.00
2023-02-05T11:02:03.266Z,1520.00
2023-02-05T11:03:03.301Z,1524.00
2023-02-05T11:04:03.209Z,1528.00
2023-02-05T11:05:03.198Z,1536.00
2023-02-05T11:06:03.191Z,1544.00
2023-02-05T11:07:03.188Z,1556.00
2023-02-05T11:08:03.163Z,1564.00
2023-02-05T11:09:03.168Z,1580.00
2023-02-05T11:10:03.144Z,1588.00
2023-02-05T11:11:03.143Z,1604.00
2023-02-05T11:12:03.141Z,1612.00
2023-02-05T11:13:03.095Z,1620.00
2023-02-05T11:14:03.081Z,1624.00
2023-02-05T11:15:03.080Z,1632.00
2023-02-05T11:16:03.142Z,1640.00
2023-02-05T11:17:03.053Z,1648.00
2023-02-05T11:18:03.043Z,1656.00
2023-02-05T11:19:03.447Z,1664.00
2023-02-05T11:20:03.023Z,1668.00
2023-02-05T11:21:03.023Z,1676.00
2023-02-05T11:22:02.997Z,1684.00
2023-02-05T11:23:03.001Z,1684.00
2023-02-05T11:24:02.953Z,1684.00
2023-02-05T11:25:02.944Z,1692.00
2023-02-05T11:26:02.944Z,1688.00
2023-02-05T11:27:02.990Z,1692.00
2023-02-05T11:28:03.199Z,1688.00
2023-02-05T11:29:02.903Z,1688.00
2023-02-05T11:30:02.895Z,1688.00
2023-02-05T11:31:02.998Z,1688.00
2023-02-05T11:32:02.947Z,1692.00
2023-02-05T11:33:02.849Z,1696.00
2023-02-05T11:34:02.866Z,1688.00
2023-02-05T11:35:02.834Z,1688.00
2023-02-05T11:36:02.819Z,1692.00
2023-02-05T11:37:02.808Z,1688.00
2023-02-05T11:38:02.785Z,1684.00
2023-02-05T11:39:02.767Z,1680.00
2023-02-05T11:40:02.774Z,1672.00
2023-02-05T11:41:02.761Z,1664.00
2023-02-05T11:42:02.738Z,1660.00
2023-02-05T11:43:02.725Z,1652.00
2023-02-05T11:44:02.696Z,1644.00
2023-02-05T11:45:02.701Z,1636.00
2023-02-05T11:46:02.670Z,1632.00
2023-02-05T11:47:02.681Z,1624.00
2023-02-05T11:48:02.674Z,1624.00
2023-02-05T11:49:02.651Z,1624.00
2023-02-05T11:50:02.627Z,1624.00
2023-02-05T11:51:02.616Z,1624.00
2023-02-05T11:52:02.660Z,1628.00
2023-02-05T11:53:02.593Z,1632.00
2023-02-05T11:54:02.591Z,1636.00
2023-02-05T11:55:02.579Z,1640.00
2023-02-05T11:56:02.549Z,1648.00
2023-02-05T11:57:02.546Z,1656.00
2023-02-05T11:58:02.553Z,1664.00
2023-02-05T11:59:02.525Z,1668.00
2023-02-05T12:00:02.503Z,1676.00
2023-02-05T12:01:02.499Z,1692.00
2023-02-05T12:02:02.559Z,1700.00
2023-02-05T12:03:02.579Z,1704.00
2023-02-05T12:04:02.494Z,1712.00
2023-02-05T12:05:02.445Z,1716.00
2023-02-05T12:06:02.427Z,1724.00
2023-02-05T12:07:02.408Z,1728.00
2023-02-05T12:08:02.415Z,1732.00
2023-02-05T12:09:02.397Z,1732.00
2023-02-05T12:10:02.379Z,1732.00
2023-02-05T12:11:02.366Z,1728.00
2023-02-05T12:12:02.355Z,1728.00
2023-02-05T12:13:02.344Z,1724.00
2023-02-05T12:14:02.325Z,1724.00
2023-02-05T12:15:02.328Z,1720.00
2023-02-05T12:16:02.325Z,1712.00
2023-02-05T12:17:02.285Z,1708.00
2023-02-05T12:18:02.304Z,1704.00
2023-02-05T12:19:02.272Z,1696.00
2023-02-05T12:20:02.252Z,1692.00
2023-02-05T12:21:02.238Z,1692.00
2023-02-05T12:22:02.236Z,1692.00
2023-02-05T12:23:02.236Z,1688.00
2023-02-05T12:24:02.215Z,1688.00
2023-02-05T12:25:02.197Z,1688.00
2023-02-05T12:26:02.189Z,1688.00
2023-02-05T12:27:02.163Z,1688.00
2023-02-05T12:28:02.191Z,1692.00
2023-02-05T12:29:02.146Z,1688.00
2023-02-05T12:30:02.121Z,1692.00
2023-02-05T12:31:02.110Z,1692.00
2023-02-05T12:32:02.105Z,1696.00
2023-02-05T12:33:02.089Z,1696.00
2023-02-05T12:34:02.105Z,1700.00
2023-02-05T12:35:02.056Z,1704.00
2023-02-05T12:36:02.058Z,1708.00
2023-02-05T12:37:02.035Z,1708.00
2023-02-05T12:38:02.025Z,1712.00
2023-02-05T12:39:03.338Z,1716.00
2023-02-05T12:40:02.023Z,1720.00
2023-02-05T12:41:01.974Z,1728.00
2023-02-05T12:42:01.968Z,1736.00
2023-02-05T12:43:01.983Z,1740.00